createdAt,value
2019-02-02T00:00:02.816Z,99.80
2019-02-02T00:02:35.217Z,107.13
2019-02-02T00:05:07.462Z,95.03
2019-02-02T00:07:39.120Z,94.73
2019-02-02T00:10:11.542Z,105.10
2019-02-02T00:12:43.447Z,102.70
2019-02-02T00:15:15.329Z,96.43
2019-02-02T00:17:49.657Z,102.70
2019-02-02T00:20:21.153Z,103.33
2019-02-02T00:22:52.583Z,104.40
2019-02-02T00:25:24.022Z,102.40
2019-02-02T00:27:58.078Z,92.90
2019-02-02T00:30:29.756Z,94.60
2019-02-02T00:33:01.139Z,98.40
2019-02-02T00:35:32.350Z,99.83
2019-02-02T00:38:04.120Z,98.53
2019-02-02T00:40:35.333Z,92.53
2019-02-02T00:43:07.196Z,98.23
2019-02-02T00:45:38.987Z,88.43
2019-02-02T00:48:12.411Z,92.93
2019-02-02T00:50:44.367Z,89.67
2019-02-02T00:53:16.393Z,94.40
2019-02-02T00:55:47.667Z,94.40
2019-02-02T00:58:19.474Z,91.17
2019-02-02T01:00:50.765Z,87.73
2019-02-02T01:03:22.188Z,84.57
2019-02-02T01:05:53.443Z,78.67
2019-02-02T01:08:25.054Z,85.57
2019-02-02T01:10:56.555Z,76.30
2019-02-02T01:13:29.134Z,79.97
2019-02-02T01:16:00.488Z,76.53
2019-02-02T01:18:32.405Z,74.33
2019-02-02T01:21:03.775Z,84.00
2019-02-02T01:23:35.092Z,78.23
2019-02-02T01:26:06.917Z,75.53
2019-02-02T01:28:38.175Z,73.20
2019-02-02T01:31:10.210Z,73.83
2019-02-02T01:33:41.979Z,74.77
2019-02-02T01:36:13.989Z,79.83
2019-02-02T01:38:45.909Z,76.87
2019-02-02T01:41:17.823Z,68.77
2019-02-02T01:43:49.291Z,76.60
2019-02-02T01:46:20.927Z,70.20
2019-02-02T01:48:53.036Z,74.00
2019-02-02T01:51:26.281Z,68.23
2019-02-02T01:53:57.712Z,75.93
2019-02-02T01:56:29.298Z,71.27
2019-02-02T01:59:01.124Z,74.37
2019-02-02T02:01:32.646Z,70.93
2019-02-02T02:04:05.690Z,71.53
2019-02-02T02:06:36.879Z,65.90
2019-02-02T02:09:09.771Z,71.00
2019-02-02T02:11:41.079Z,66.30
2019-02-02T02:14:13.275Z,71.63
2019-02-02T02:16:44.866Z,69.97
2019-02-02T02:19:18.349Z,71.57
2019-02-02T02:21:49.717Z,67.50
2019-02-02T02:24:21.349Z,68.10
2019-02-02T02:26:54.294Z,71.13
2019-02-02T02:29:26.314Z,69.43
2019-02-02T02:31:57.604Z,72.00
2019-02-02T02:34:29.200Z,68.53
2019-02-02T02:37:01.862Z,74.70
2019-02-02T02:39:33.089Z,67.33
2019-02-02T02:42:04.857Z,66.47
2019-02-02T02:44:37.211Z,72.37
2019-02-02T02:47:08.681Z,64.33
2019-02-02T02:49:40.361Z,74.23
2019-02-02T02:52:12.533Z,68.40
2019-02-02T02:54:44.501Z,68.07
2019-02-02T02:57:16.209Z,59.97
2019-02-02T02:59:47.547Z,60.50
2019-02-02T03:02:18.885Z,65.03
2019-02-02T03:04:50.181Z,61.37
2019-02-02T03:07:21.979Z,56.17
2019-02-02T03:09:54.334Z,65.40
2019-02-02T03:12:25.848Z,62.73
2019-02-02T03:14:57.196Z,61.50
2019-02-02T03:17:29.098Z,58.90
2019-02-02T03:20:00.646Z,65.63
2019-02-02T03:22:31.946Z,60.70
2019-02-02T03:25:03.716Z,56.37
2019-02-02T03:27:35.393Z,61.37
2019-02-02T03:30:08.721Z,58.63
2019-02-02T03:32:40.346Z,64.13
2019-02-02T03:35:14.796Z,65.07
2019-02-02T03:37:46.166Z,62.87
2019-02-02T03:40:19.687Z,61.67
2019-02-02T03:42:51.551Z,60.00
2019-02-02T03:45:24.303Z,59.63
2019-02-02T03:47:55.900Z,66.00
2019-02-02T03:50:27.333Z,62.83
2019-02-02T03:52:58.784Z,63.40
2019-02-02T03:55:30.166Z,66.83
2019-02-02T03:58:01.948Z,62.60
2019-02-02T04:00:33.985Z,57.57
2019-02-02T04:03:07.114Z,66.50
2019-02-02T04:05:38.597Z,61.40
2019-02-02T04:08:11.095Z,63.40
2019-02-02T04:10:42.848Z,63.97
2019-02-02T04:13:14.288Z,72.13
2019-02-02T04:15:46.311Z,66.33
2019-02-02T04:18:26.812Z,67.83
2019-02-02T04:20:58.973Z,63.67
2019-02-02T04:23:30.382Z,65.87
2019-02-02T04:26:01.746Z,69.13
2019-02-02T04:28:33.382Z,65.53
2019-02-02T04:31:05.152Z,65.47
2019-02-02T04:33:36.602Z,71.80
2019-02-02T04:36:07.867Z,71.53
2019-02-02T04:38:41.776Z,66.70
2019-02-02T04:41:15.097Z,70.83
2019-02-02T04:43:46.449Z,72.27
2019-02-02T04:46:18.044Z,74.33
2019-02-02T04:48:49.507Z,81.00
2019-02-02T04:51:21.262Z,84.90
2019-02-02T04:53:52.643Z,83.87
2019-02-02T04:56:24.229Z,80.27
2019-02-02T04:58:56.060Z,73.77
2019-02-02T05:01:27.367Z,84.20
2019-02-02T05:03:58.710Z,76.47
2019-02-02T05:06:30.186Z,78.43
2019-02-02T05:09:01.551Z,78.50
2019-02-02T05:11:33.246Z,77.97
2019-02-02T05:14:05.020Z,75.23
2019-02-02T05:16:37.032Z,77.67
2019-02-02T05:19:08.625Z,72.30
2019-02-02T05:21:40.494Z,73.90
2019-02-02T05:24:13.059Z,68.10
2019-02-02T05:26:45.637Z,79.70
2019-02-02T05:29:17.617Z,73.77
2019-02-02T05:31:49.363Z,67.10
2019-02-02T05:34:20.979Z,67.03
2019-02-02T05:36:53.767Z,60.53
2019-02-02T05:39:25.194Z,62.97
2019-02-02T05:41:56.490Z,61.80
2019-02-02T05:44:28.048Z,60.87
2019-02-02T05:46:59.541Z,62.67
2019-02-02T05:49:31.503Z,65.80
2019-02-02T05:52:03.060Z,69.07
2019-02-02T05:54:34.402Z,66.07
2019-02-02T05:57:06.812Z,67.37
2019-02-02T05:59:38.198Z,64.40
2019-02-02T06:02:09.430Z,68.30
2019-02-02T06:04:41.016Z,70.27
2019-02-02T06:07:13.569Z,73.20
2019-02-02T06:09:45.769Z,65.00
2019-02-02T06:12:17.359Z,64.83
2019-02-02T06:14:49.088Z,72.43
2019-02-02T06:17:20.931Z,74.70
2019-02-02T06:19:52.296Z,70.60
2019-02-02T06:22:23.730Z,70.87
2019-02-02T06:24:55.040Z,56.33
2019-02-02T06:27:26.630Z,59.93
2019-02-02T06:30:04.341Z,60.00
2019-02-02T06:32:31.069Z,54.77
2019-02-02T06:35:02.569Z,54.40
2019-02-02T06:37:34.505Z,57.30
2019-02-02T06:40:06.540Z,59.60
2019-02-02T06:42:38.161Z,55.53
2019-02-02T06:45:22.144Z,62.27
2019-02-02T06:47:57.211Z,53.80
2019-02-02T06:50:28.853Z,51.87
2019-02-02T06:53:00.569Z,52.23
2019-02-02T06:55:32.042Z,51.63
2019-02-02T06:58:03.849Z,45.70
2019-02-02T07:00:35.470Z,49.40
2019-02-02T07:03:07.040Z,47.53
2019-02-02T07:05:38.435Z,46.50
2019-02-02T07:08:09.722Z,40.97
2019-02-02T07:10:41.036Z,43.93
2019-02-02T07:13:13.015Z,39.60
2019-02-02T07:15:45.134Z,40.80
2019-02-02T07:18:16.710Z,43.43
2019-02-02T07:20:48.373Z,40.70
2019-02-02T07:23:20.003Z,35.63
2019-02-02T07:25:51.463Z,39.70
2019-02-02T07:28:23.221Z,40.00
2019-02-02T07:30:54.549Z,41.20
2019-02-02T07:33:25.843Z,37.37
2019-02-02T07:35:57.338Z,39.57
2019-02-02T07:38:34.245Z,39.37
2019-02-02T07:41:05.720Z,39.20
2019-02-02T07:43:37.124Z,36.37
2019-02-02T07:46:14.880Z,40.27
2019-02-02T07:48:42.927Z,38.83
2019-02-02T07:51:14.482Z,38.77
2019-02-02T07:53:46.253Z,43.63
2019-02-02T07:56:17.698Z,42.87
2019-02-02T07:58:49.029Z,39.93
2019-02-02T08:01:20.439Z,37.40
2019-02-02T08:03:52.021Z,35.90
2019-02-02T08:06:23.547Z,40.40
2019-02-02T08:08:55.426Z,42.10
2019-02-02T08:11:27.100Z,38.27
2019-02-02T08:13:58.551Z,38.43
2019-02-02T08:16:29.995Z,41.37
2019-02-02T08:19:06.812Z,40.00
2019-02-02T08:21:38.137Z,37.73
2019-02-02T08:24:09.939Z,40.47
2019-02-02T08:26:41.431Z,44.60
2019-02-02T08:29:14.750Z,40.33
2019-02-02T08:31:46.456Z,45.93
2019-02-02T08:34:18.122Z,39.77
2019-02-02T08:36:49.583Z,40.83
2019-02-02T08:39:29.018Z,38.37
2019-02-02T08:41:54.175Z,40.93
2019-02-02T08:44:25.827Z,34.97
2019-02-02T08:46:57.005Z,33.30
2019-02-02T08:49:28.482Z,31.57
2019-02-02T08:51:59.835Z,47.67
2019-02-02T08:54:31.559Z,38.13
2019-02-02T08:57:03.248Z,61.27
2019-02-02T08:59:34.569Z,32.90
2019-02-02T09:02:06.182Z,36.90
2019-02-02T09:04:37.975Z,32.77
2019-02-02T09:07:09.562Z,41.30
2019-02-02T09:09:41.019Z,37.27
2019-02-02T09:12:13.035Z,46.50
2019-02-02T09:14:44.706Z,36.50
2019-02-02T09:17:16.016Z,34.53
2019-02-02T09:19:47.681Z,33.10
2019-02-02T09:22:19.053Z,36.90
2019-02-02T09:24:51.929Z,37.93
2019-02-02T09:27:23.643Z,37.30
2019-02-02T09:29:55.161Z,37.40
2019-02-02T09:32:26.493Z,48.03
2019-02-02T09:34:57.907Z,40.40
2019-02-02T09:37:29.554Z,38.97
2019-02-02T09:40:01.274Z,36.90
2019-02-02T09:42:32.638Z,42.43
2019-02-02T09:45:05.987Z,37.47
2019-02-02T09:47:42.848Z,39.17
2019-02-02T09:50:16.621Z,39.53
2019-02-02T09:52:48.137Z,39.33
2019-02-02T09:55:20.935Z,40.53
2019-02-02T09:57:55.222Z,37.13
2019-02-02T10:00:28.716Z,40.53
2019-02-02T10:03:02.798Z,42.07
2019-02-02T10:05:35.739Z,40.70
2019-02-02T10:08:07.690Z,35.50
2019-02-02T10:10:39.373Z,38.77
2019-02-02T10:13:10.827Z,93.50
2019-02-02T10:15:42.988Z,61.60
2019-02-02T10:18:14.948Z,66.63
2019-02-02T10:20:46.196Z,39.03
2019-02-02T10:23:18.481Z,40.87
2019-02-02T10:25:49.815Z,43.90
2019-02-02T10:28:21.598Z,40.00
2019-02-02T10:30:53.150Z,44.00
2019-02-02T10:33:25.846Z,50.07
2019-02-02T10:35:57.429Z,47.27
2019-02-02T10:38:29.131Z,39.73
2019-02-02T10:41:00.503Z,44.13
2019-02-02T10:43:31.958Z,51.57
2019-02-02T10:46:03.628Z,42.53
2019-02-02T10:48:34.974Z,47.00
2019-02-02T10:51:06.646Z,57.33
2019-02-02T10:53:38.131Z,46.70
2019-02-02T10:56:09.790Z,49.77
2019-02-02T10:58:42.006Z,59.83
2019-02-02T11:01:13.718Z,51.17
2019-02-02T11:03:45.968Z,43.30
2019-02-02T11:06:17.654Z,51.00
2019-02-02T11:08:49.547Z,44.63
2019-02-02T11:11:21.403Z,56.43
2019-02-02T11:13:52.847Z,58.17
2019-02-02T11:16:24.378Z,62.33
2019-02-02T11:18:56.125Z,74.20
2019-02-02T11:21:27.352Z,113.40
2019-02-02T11:23:59.093Z,73.67
2019-02-02T11:26:30.678Z,76.87
2019-02-02T11:29:07.221Z,103.33
2019-02-02T11:31:38.719Z,56.33
2019-02-02T11:34:10.367Z,68.03
2019-02-02T11:36:43.849Z,68.67
2019-02-02T11:39:15.662Z,106.30
2019-02-02T11:41:47.221Z,93.33
2019-02-02T11:44:20.174Z,60.10
2019-02-02T11:46:52.268Z,66.37
2019-02-02T11:49:24.141Z,59.47
2019-02-02T11:51:55.920Z,79.37
2019-02-02T11:54:27.445Z,54.93
2019-02-02T11:56:59.261Z,53.30
2019-02-02T11:59:31.129Z,58.63
2019-02-02T12:02:14.305Z,48.87
2019-02-02T12:04:37.379Z,58.33
2019-02-02T12:07:09.193Z,63.40
2019-02-02T12:09:41.069Z,55.67
2019-02-02T12:12:13.029Z,70.70
2019-02-02T12:14:44.726Z,62.90
2019-02-02T12:17:16.176Z,70.73
2019-02-02T12:19:47.570Z,70.27
2019-02-02T12:22:19.100Z,60.83
2019-02-02T12:24:50.594Z,76.00
2019-02-02T12:27:22.434Z,71.70
2019-02-02T12:29:53.932Z,64.73
2019-02-02T12:32:26.947Z,78.60
2019-02-02T12:34:58.533Z,64.93
2019-02-02T12:37:30.024Z,80.40
2019-02-02T12:40:02.124Z,74.43
2019-02-02T12:42:34.549Z,62.07
2019-02-02T12:45:08.943Z,81.17
2019-02-02T12:47:45.924Z,103.33
2019-02-02T12:50:18.216Z,67.83
2019-02-02T12:52:49.723Z,62.27
2019-02-02T12:55:21.358Z,72.10
2019-02-02T12:58:01.000Z,64.40
2019-02-02T13:00:32.788Z,81.87
2019-02-02T13:03:06.895Z,79.50
2019-02-02T13:05:40.680Z,80.80
2019-02-02T13:08:13.307Z,91.07
2019-02-02T13:10:46.250Z,72.57
2019-02-02T13:13:18.414Z,84.10
2019-02-02T13:15:50.442Z,72.73
2019-02-02T13:18:22.659Z,59.77
2019-02-02T13:20:54.593Z,75.90
2019-02-02T13:23:26.441Z,66.07
2019-02-02T13:26:05.497Z,71.03
2019-02-02T13:28:34.475Z,67.23
2019-02-02T13:31:07.326Z,73.97
2019-02-02T13:33:39.885Z,74.97
2019-02-02T13:36:12.955Z,69.07
2019-02-02T13:38:47.692Z,79.93
2019-02-02T13:41:21.006Z,80.33
2019-02-02T13:43:54.016Z,81.20
2019-02-02T13:46:26.420Z,86.17
2019-02-02T13:48:58.702Z,75.13
2019-02-02T13:51:30.839Z,81.40
2019-02-02T13:54:02.821Z,78.63
2019-02-02T13:56:34.365Z,79.67
2019-02-02T13:59:07.301Z,76.70
2019-02-02T14:01:42.210Z,87.87
2019-02-02T14:04:12.794Z,82.07
2019-02-02T14:06:47.608Z,113.90
2019-02-02T14:09:23.199Z,69.47
2019-02-02T14:11:55.162Z,69.27
2019-02-02T14:14:27.149Z,74.90
2019-02-02T14:16:59.183Z,93.57
2019-02-02T14:19:31.152Z,77.73
2019-02-02T14:22:03.947Z,99.77
2019-02-02T14:24:38.827Z,84.23
2019-02-02T14:27:11.966Z,77.33
2019-02-02T14:29:44.826Z,83.07
2019-02-02T14:32:16.818Z,84.90
2019-02-02T14:34:48.872Z,83.70
2019-02-02T14:37:21.115Z,72.00
2019-02-02T14:39:52.791Z,83.37
2019-02-02T14:42:27.136Z,79.90
2019-02-02T14:45:03.084Z,85.75
2019-02-02T14:47:35.064Z,95.60
2019-02-02T14:50:09.257Z,91.70
2019-02-02T14:52:42.986Z,76.97
2019-02-02T14:55:17.256Z,84.33
2019-02-02T14:57:49.200Z,92.13
2019-02-02T15:00:22.966Z,73.63
2019-02-02T15:03:03.098Z,87.40
2019-02-02T15:05:42.718Z,78.77
2019-02-02T15:08:10.350Z,79.23
2019-02-02T15:10:42.859Z,92.10
2019-02-02T15:13:17.724Z,96.57
2019-02-02T15:15:52.547Z,79.77
2019-02-02T15:18:30.079Z,177.13
2019-02-02T15:21:01.969Z,98.43
2019-02-02T15:23:33.659Z,89.20
2019-02-02T15:26:05.231Z,82.13
2019-02-02T15:28:36.845Z,85.13
2019-02-02T15:31:08.515Z,79.07
2019-02-02T15:33:43.885Z,73.80
2019-02-02T15:36:17.284Z,74.97
2019-02-02T15:38:48.973Z,76.03
2019-02-02T15:41:20.751Z,87.03
2019-02-02T15:43:52.295Z,82.03
2019-02-02T15:46:23.967Z,74.57
2019-02-02T15:48:59.122Z,69.70
2019-02-02T15:51:40.069Z,72.93
2019-02-02T15:54:07.446Z,80.73
2019-02-02T15:56:39.320Z,74.13
2019-02-02T15:59:11.677Z,72.30
2019-02-02T16:01:44.960Z,76.23
2019-02-02T16:04:16.668Z,73.60
2019-02-02T16:06:48.708Z,81.47
2019-02-02T16:09:23.382Z,79.60
2019-02-02T16:12:00.503Z,76.73
2019-02-02T16:14:32.031Z,75.50
2019-02-02T16:17:03.651Z,73.70
2019-02-02T16:19:35.570Z,78.83
2019-02-02T16:22:12.679Z,74.57
2019-02-02T16:24:45.636Z,82.50
2019-02-02T16:27:17.593Z,90.53
2019-02-02T16:29:49.302Z,77.30
2019-02-02T16:32:20.758Z,85.97
2019-02-02T16:34:52.347Z,83.87
2019-02-02T16:37:23.907Z,75.20
2019-02-02T16:39:56.064Z,82.30
2019-02-02T16:42:35.820Z,85.63
2019-02-02T16:45:07.879Z,73.67
2019-02-02T16:47:39.458Z,82.43
2019-02-02T16:50:15.825Z,77.90
2019-02-02T16:52:47.888Z,78.47
2019-02-02T16:55:20.181Z,90.00
2019-02-02T16:57:51.951Z,90.70
2019-02-02T17:00:25.778Z,83.80
2019-02-02T17:02:58.170Z,84.23
2019-02-02T17:05:30.185Z,78.57
2019-02-02T17:08:01.896Z,83.50
2019-02-02T17:10:37.727Z,100.70
2019-02-02T17:13:10.001Z,100.00
2019-02-02T17:15:42.349Z,108.13
2019-02-02T17:18:14.000Z,90.73
2019-02-02T17:20:46.676Z,87.07
2019-02-02T17:23:18.876Z,82.03
2019-02-02T17:25:50.716Z,89.00
2019-02-02T17:28:22.330Z,75.67
2019-02-02T17:30:53.760Z,69.87
2019-02-02T17:33:26.655Z,80.20
2019-02-02T17:35:59.558Z,78.07
2019-02-02T17:38:31.535Z,73.60
2019-02-02T17:41:03.087Z,76.83
2019-02-02T17:43:34.697Z,81.40
2019-02-02T17:46:06.401Z,76.43
2019-02-02T17:48:39.249Z,78.13
2019-02-02T17:51:11.512Z,82.83
2019-02-02T17:53:43.892Z,73.77
2019-02-02T17:56:15.497Z,82.13
2019-02-02T17:58:48.522Z,77.27
2019-02-02T18:01:20.351Z,81.57
2019-02-02T18:03:52.073Z,77.10
2019-02-02T18:06:23.800Z,74.27
2019-02-02T18:08:55.745Z,77.40
2019-02-02T18:11:27.352Z,82.70
2019-02-02T18:13:59.100Z,80.43
2019-02-02T18:16:33.433Z,79.73
2019-02-02T18:19:05.925Z,88.30
2019-02-02T18:21:39.956Z,92.87
2019-02-02T18:24:11.526Z,99.93
2019-02-02T18:26:43.497Z,110.40
2019-02-02T18:29:15.351Z,90.40
2019-02-02T18:31:47.327Z,91.77
2019-02-02T18:34:18.961Z,83.37
2019-02-02T18:36:50.482Z,96.13
2019-02-02T18:39:22.337Z,99.83
2019-02-02T18:41:54.419Z,107.73
2019-02-02T18:44:26.602Z,92.10
2019-02-02T18:46:58.516Z,90.03
2019-02-02T18:49:32.160Z,93.37
2019-02-02T18:52:09.704Z,88.90
2019-02-02T18:54:41.509Z,95.50
2019-02-02T18:57:13.411Z,86.37
2019-02-02T18:59:45.342Z,91.73
2019-02-02T19:02:17.207Z,98.57
2019-02-02T19:04:48.681Z,89.63
2019-02-02T19:07:20.522Z,90.70
2019-02-02T19:09:52.409Z,92.33
2019-02-02T19:12:25.239Z,86.60
2019-02-02T19:14:57.467Z,87.17
2019-02-02T19:17:29.572Z,92.03
2019-02-02T19:20:01.640Z,97.37
2019-02-02T19:22:33.315Z,93.80
2019-02-02T19:25:10.268Z,88.93
2019-02-02T19:27:42.295Z,95.17
2019-02-02T19:30:22.554Z,97.10
2019-02-02T19:32:54.739Z,92.63
2019-02-02T19:35:26.722Z,97.73
2019-02-02T19:37:59.985Z,93.93
2019-02-02T19:40:31.746Z,92.93
2019-02-02T19:43:03.763Z,98.07
2019-02-02T19:45:36.515Z,102.53
2019-02-02T19:48:08.482Z,86.17
2019-02-02T19:50:40.392Z,92.37
2019-02-02T19:53:12.542Z,95.87
2019-02-02T19:55:44.522Z,95.23
2019-02-02T19:58:16.624Z,92.13
2019-02-02T20:00:48.538Z,94.03
2019-02-02T20:03:20.109Z,88.00
2019-02-02T20:05:51.872Z,96.27
2019-02-02T20:08:23.604Z,94.00
2019-02-02T20:10:55.620Z,103.13
2019-02-02T20:13:27.543Z,96.93
2019-02-02T20:15:59.365Z,96.00
2019-02-02T20:18:31.027Z,94.93
2019-02-02T20:21:03.167Z,95.03
2019-02-02T20:23:40.163Z,94.47
2019-02-02T20:26:11.863Z,95.67
2019-02-02T20:28:47.390Z,97.07
2019-02-02T20:31:19.192Z,102.87
2019-02-02T20:33:51.192Z,89.17
2019-02-02T20:36:23.030Z,96.33
2019-02-02T20:38:54.853Z,97.23
2019-02-02T20:41:26.510Z,92.70
2019-02-02T20:43:58.459Z,100.40
2019-02-02T20:46:30.423Z,90.83
2019-02-02T20:49:02.300Z,93.37
2019-02-02T20:51:34.683Z,94.73
2019-02-02T20:54:07.039Z,92.70
2019-02-02T20:56:39.045Z,100.03
2019-02-02T20:59:11.358Z,95.27
2019-02-02T21:01:43.657Z,100.67
2019-02-02T21:04:15.407Z,104.90
2019-02-02T21:06:47.322Z,107.53
2019-02-02T21:09:18.968Z,116.73
2019-02-02T21:11:57.002Z,93.10
2019-02-02T21:14:24.427Z,81.33
2019-02-02T21:16:56.887Z,84.67
2019-02-02T21:19:29.719Z,89.30
2019-02-02T21:22:01.444Z,88.03
2019-02-02T21:24:33.751Z,88.83
2019-02-02T21:27:05.456Z,90.93
2019-02-02T21:29:37.537Z,85.97
2019-02-02T21:32:09.573Z,84.53
2019-02-02T21:34:41.686Z,86.00
2019-02-02T21:37:14.804Z,90.83
2019-02-02T21:39:48.018Z,91.83
2019-02-02T21:42:20.047Z,91.10
2019-02-02T21:44:51.611Z,83.13
2019-02-02T21:47:23.704Z,88.83
2019-02-02T21:49:55.937Z,84.67
2019-02-02T21:52:28.407Z,95.07
2019-02-02T21:55:03.373Z,86.83
2019-02-02T21:57:36.060Z,88.80
2019-02-02T22:00:12.964Z,89.80
2019-02-02T22:02:46.258Z,96.63
2019-02-02T22:05:18.995Z,97.27
2019-02-02T22:07:50.801Z,93.10
2019-02-02T22:10:23.044Z,86.27
2019-02-02T22:12:55.585Z,83.80
2019-02-02T22:15:27.479Z,79.03
2019-02-02T22:17:59.669Z,81.10
2019-02-02T22:20:31.553Z,87.23
2019-02-02T22:23:03.703Z,86.87
2019-02-02T22:25:35.523Z,73.60
2019-02-02T22:28:07.740Z,75.67
2019-02-02T22:30:39.950Z,75.53
2019-02-02T22:33:12.000Z,73.27
2019-02-02T22:35:44.478Z,74.87
2019-02-02T22:38:16.204Z,75.87
2019-02-02T22:40:48.256Z,78.87
2019-02-02T22:43:20.318Z,73.90
2019-02-02T22:45:52.199Z,69.73
2019-02-02T22:48:23.923Z,78.83
2019-02-02T22:50:57.885Z,72.47
2019-02-02T22:53:30.291Z,76.73
2019-02-02T22:56:02.218Z,71.40
2019-02-02T22:58:33.788Z,89.87
2019-02-02T23:01:12.562Z,78.47
2019-02-02T23:04:20.741Z,70.77
2019-02-02T23:07:21.923Z,66.10
2019-02-02T23:10:45.887Z,69.40
2019-02-02T23:13:40.058Z,63.40
2019-02-02T23:16:31.665Z,62.73
2019-02-02T23:19:05.997Z,64.30
2019-02-02T23:21:38.919Z,62.50
2019-02-02T23:24:12.995Z,65.00
2019-02-02T23:26:47.408Z,68.10
2019-02-02T23:29:19.676Z,67.30
2019-02-02T23:31:51.642Z,68.00
2019-02-02T23:34:24.033Z,64.90
2019-02-02T23:36:57.248Z,65.37
2019-02-02T23:39:31.059Z,63.90
2019-02-02T23:42:03.024Z,70.57
2019-02-02T23:44:35.319Z,59.53
2019-02-02T23:47:07.010Z,58.60
2019-02-02T23:49:41.963Z,55.10
2019-02-02T23:52:14.012Z,55.60
2019-02-02T23:54:46.912Z,49.30
2019-02-02T23:57:18.747Z,46.27
2019-02-02T23:59:55.536Z,51.37
